sensor_id;sensor_type;location;lat;lon;timestamp;P1;durP1;ratioP1;P2;durP2;ratioP2
46875;SDS011;32866;50.160;14.768;2023-11-22T00:01:05;5.50;;;3.70;;
46875;SDS011;32866;50.160;14.768;2023-11-22T00:03:31;2.50;;;2.40;;
46875;SDS011;32866;50.160;14.768;2023-11-22T00:05:58;24.97;;;6.43;;
46875;SDS011;32866;50.160;14.768;2023-11-22T00:08:24;6.97;;;5.97;;
46875;SDS011;32866;50.160;14.768;2023-11-22T00:10:50;9.73;;;5.13;;
46875;SDS011;32866;50.160;14.768;2023-11-22T00:13:16;11.30;;;3.55;;
46875;SDS011;32866;50.160;14.768;2023-11-22T00:15:42;9.80;;;7.95;;
46875;SDS011;32866;50.160;14.768;2023-11-22T00:18:08;14.20;;;4.68;;
46875;SDS011;32866;50.160;14.768;2023-11-22T00:20:34;3.35;;;3.25;;
46875;SDS011;32866;50.160;14.768;2023-11-22T00:25:27;6.20;;;2.50;;
46875;SDS011;32866;50.160;14.768;2023-11-22T00:27:53;2.85;;;2.75;;
46875;SDS011;32866;50.160;14.768;2023-11-22T00:30:20;1.83;;;1.83;;
46875;SDS011;32866;50.160;14.768;2023-11-22T00:32:46;3.70;;;3.47;;
46875;SDS011;32866;50.160;14.768;2023-11-22T00:35:12;2.13;;;2.03;;
46875;SDS011;32866;50.160;14.768;2023-11-22T00:37:38;2.17;;;2.08;;
46875;SDS011;32866;50.160;14.768;2023-11-22T00:40:05;2.90;;;2.70;;
46875;SDS011;32866;50.160;14.768;2023-11-22T00:42:39;1.60;;;1.60;;
46875;SDS011;32866;50.160;14.768;2023-11-22T00:45:07;2.70;;;2.60;;
46875;SDS011;32866;50.160;14.768;2023-11-22T00:47:35;2.10;;;2.03;;
46875;SDS011;32866;50.160;14.768;2023-11-22T00:50:02;1.70;;;1.70;;
46875;SDS011;32866;50.160;14.768;2023-11-22T00:52:30;2.57;;;2.40;;
46875;SDS011;32866;50.160;14.768;2023-11-22T00:54:56;2.67;;;2.57;;
46875;SDS011;32866;50.160;14.768;2023-11-22T00:57:22;2.03;;;2.00;;
46875;SDS011;32866;50.160;14.768;2023-11-22T00:59:48;2.08;;;2.03;;
46875;SDS011;32866;50.160;14.768;2023-11-22T01:02:15;1.70;;;1.70;;
46875;SDS011;32866;50.160;14.768;2023-11-22T01:04:42;2.43;;;2.33;;
46875;SDS011;32866;50.160;14.768;2023-11-22T01:07:07;3.38;;;3.22;;
46875;SDS011;32866;50.160;14.768;2023-11-22T01:09:33;1.83;;;1.83;;
46875;SDS011;32866;50.160;14.768;2023-11-22T01:12:00;2.60;;;2.50;;
46875;SDS011;32866;50.160;14.768;2023-11-22T01:16:52;2.43;;;2.33;;
46875;SDS011;32866;50.160;14.768;2023-11-22T01:19:20;2.67;;;2.57;;
46875;SDS011;32866;50.160;14.768;2023-11-22T01:21:46;2.40;;;2.30;;
46875;SDS011;32866;50.160;14.768;2023-11-22T01:26:38;1.70;;;1.70;;
46875;SDS011;32866;50.160;14.768;2023-11-22T01:29:04;2.47;;;2.38;;
46875;SDS011;32866;50.160;14.768;2023-11-22T01:34:00;2.08;;;2.03;;
46875;SDS011;32866;50.160;14.768;2023-11-22T01:36:28;2.57;;;2.47;;
46875;SDS011;32866;50.160;14.768;2023-11-22T01:38:54;2.03;;;2.00;;
46875;SDS011;32866;50.160;14.768;2023-11-22T01:41:21;2.27;;;2.17;;
46875;SDS011;32866;50.160;14.768;2023-11-22T01:43:47;2.70;;;2.60;;
46875;SDS011;32866;50.160;14.768;2023-11-22T01:46:32;2.17;;;2.07;;
46875;SDS011;32866;50.160;14.768;2023-11-22T01:48:59;2.33;;;2.23;;
46875;SDS011;32866;50.160;14.768;2023-11-22T01:51:26;2.87;;;2.67;;
46875;SDS011;32866;50.160;14.768;2023-11-22T01:53:53;7.82;;;2.97;;
46875;SDS011;32866;50.160;14.768;2023-11-22T01:56:22;2.10;;;2.00;;
46875;SDS011;32866;50.160;14.768;2023-11-22T01:58:52;2.63;;;2.43;;
46875;SDS011;32866;50.160;14.768;2023-11-22T02:01:21;1.77;;;1.77;;
46875;SDS011;32866;50.160;14.768;2023-11-22T02:03:47;4.30;;;4.10;;
46875;SDS011;32866;50.160;14.768;2023-11-22T02:06:17;2.73;;;2.63;;
46875;SDS011;32866;50.160;14.768;2023-11-22T02:08:44;2.10;;;2.03;;
46875;SDS011;32866;50.160;14.768;2023-11-22T02:11:11;2.87;;;2.77;;
46875;SDS011;32866;50.160;14.768;2023-11-22T02:13:38;3.43;;;3.23;;
46875;SDS011;32866;50.160;14.768;2023-11-22T02:16:04;3.72;;;3.33;;
46875;SDS011;32866;50.160;14.768;2023-11-22T02:18:30;2.43;;;2.33;;
46875;SDS011;32866;50.160;14.768;2023-11-22T02:20:56;3.17;;;2.50;;
46875;SDS011;32866;50.160;14.768;2023-11-22T02:23:22;2.75;;;2.65;;
46875;SDS011;32866;50.160;14.768;2023-11-22T02:25:48;3.35;;;3.15;;
46875;SDS011;32866;50.160;14.768;2023-11-22T02:28:14;4.90;;;3.13;;
46875;SDS011;32866;50.160;14.768;2023-11-22T02:30:40;3.50;;;3.10;;
46875;SDS011;32866;50.160;14.768;2023-11-22T02:33:07;2.50;;;2.40;;
46875;SDS011;32866;50.160;14.768;2023-11-22T02:35:33;2.53;;;2.42;;
46875;SDS011;32866;50.160;14.768;2023-11-22T02:37:59;4.38;;;3.25;;
46875;SDS011;32866;50.160;14.768;2023-11-22T02:40:26;2.63;;;2.53;;
46875;SDS011;32866;50.160;14.768;2023-11-22T02:42:53;2.53;;;2.43;;
46875;SDS011;32866;50.160;14.768;2023-11-22T02:45:21;2.43;;;2.33;;
46875;SDS011;32866;50.160;14.768;2023-11-22T02:47:49;2.50;;;2.23;;
46875;SDS011;32866;50.160;14.768;2023-11-22T02:50:16;2.80;;;2.70;;
46875;SDS011;32866;50.160;14.768;2023-11-22T02:55:08;3.93;;;3.53;;
46875;SDS011;32866;50.160;14.768;2023-11-22T02:57:35;4.33;;;4.13;;
46875;SDS011;32866;50.160;14.768;2023-11-22T03:00:02;3.50;;;3.40;;
46875;SDS011;32866;50.160;14.768;2023-11-22T03:02:41;3.57;;;3.37;;
46875;SDS011;32866;50.160;14.768;2023-11-22T03:05:10;3.77;;;3.57;;
46875;SDS011;32866;50.160;14.768;2023-11-22T03:07:37;3.40;;;3.20;;
46875;SDS011;32866;50.160;14.768;2023-11-22T03:10:03;5.20;;;4.93;;
46875;SDS011;32866;50.160;14.768;2023-11-22T03:12:29;4.50;;;4.30;;
46875;SDS011;32866;50.160;14.768;2023-11-22T03:14:55;4.07;;;3.92;;
46875;SDS011;32866;50.160;14.768;2023-11-22T03:17:28;6.27;;;5.40;;
46875;SDS011;32866;50.160;14.768;2023-11-22T03:19:55;4.83;;;4.53;;
46875;SDS011;32866;50.160;14.768;2023-11-22T03:22:28;5.47;;;5.07;;
46875;SDS011;32866;50.160;14.768;2023-11-22T03:24:59;5.30;;;5.10;;
46875;SDS011;32866;50.160;14.768;2023-11-22T03:27:25;5.67;;;5.33;;
46875;SDS011;32866;50.160;14.768;2023-11-22T03:32:18;5.03;;;4.73;;
46875;SDS011;32866;50.160;14.768;2023-11-22T03:34:44;4.88;;;4.68;;
46875;SDS011;32866;50.160;14.768;2023-11-22T03:37:10;4.90;;;4.70;;
46875;SDS011;32866;50.160;14.768;2023-11-22T03:39:36;5.90;;;5.60;;
46875;SDS011;32866;50.160;14.768;2023-11-22T03:42:03;5.83;;;5.57;;
46875;SDS011;32866;50.160;14.768;2023-11-22T03:44:29;6.33;;;6.03;;
46875;SDS011;32866;50.160;14.768;2023-11-22T03:46:55;5.05;;;4.75;;
46875;SDS011;32866;50.160;14.768;2023-11-22T03:49:21;4.82;;;4.63;;
46875;SDS011;32866;50.160;14.768;2023-11-22T03:51:47;4.45;;;4.25;;
46875;SDS011;32866;50.160;14.768;2023-11-22T03:54:13;7.35;;;6.78;;
46875;SDS011;32866;50.160;14.768;2023-11-22T03:56:39;6.35;;;5.95;;
46875;SDS011;32866;50.160;14.768;2023-11-22T03:59:05;6.05;;;5.68;;
46875;SDS011;32866;50.160;14.768;2023-11-22T04:01:31;7.93;;;7.53;;
46875;SDS011;32866;50.160;14.768;2023-11-22T04:03:57;6.60;;;6.35;;
46875;SDS011;32866;50.160;14.768;2023-11-22T04:06:23;7.03;;;6.72;;
46875;SDS011;32866;50.160;14.768;2023-11-22T04:08:49;7.15;;;6.85;;
46875;SDS011;32866;50.160;14.768;2023-11-22T04:11:15;7.90;;;7.57;;
46875;SDS011;32866;50.160;14.768;2023-11-22T04:13:43;9.37;;;8.97;;
46875;SDS011;32866;50.160;14.768;2023-11-22T04:18:38;8.37;;;8.00;;
46875;SDS011;32866;50.160;14.768;2023-11-22T04:21:06;15.07;;;14.33;;
46875;SDS011;32866;50.160;14.768;2023-11-22T04:23:32;14.33;;;13.50;;
46875;SDS011;32866;50.160;14.768;2023-11-22T04:28:26;9.32;;;8.95;;
46875;SDS011;32866;50.160;14.768;2023-11-22T04:30:53;13.27;;;12.63;;
46875;SDS011;32866;50.160;14.768;2023-11-22T04:35:46;9.30;;;8.90;;
46875;SDS011;32866;50.160;14.768;2023-11-22T04:38:14;12.53;;;12.00;;
46875;SDS011;32866;50.160;14.768;2023-11-22T04:40:40;14.65;;;13.95;;
46875;SDS011;32866;50.160;14.768;2023-11-22T04:43:08;14.47;;;13.67;;
46875;SDS011;32866;50.160;14.768;2023-11-22T04:45:34;14.53;;;13.93;;
46875;SDS011;32866;50.160;14.768;2023-11-22T04:48:00;12.98;;;12.48;;
46875;SDS011;32866;50.160;14.768;2023-11-22T04:50:26;14.43;;;13.73;;
46875;SDS011;32866;50.160;14.768;2023-11-22T04:52:52;12.88;;;12.27;;
46875;SDS011;32866;50.160;14.768;2023-11-22T04:55:18;13.55;;;12.82;;
46875;SDS011;32866;50.160;14.768;2023-11-22T04:57:45;13.70;;;13.07;;
46875;SDS011;32866;50.160;14.768;2023-11-22T05:00:13;13.70;;;13.10;;
46875;SDS011;32866;50.160;14.768;2023-11-22T05:05:08;10.53;;;9.97;;
46875;SDS011;32866;50.160;14.768;2023-11-22T05:07:37;11.80;;;11.30;;
46875;SDS011;32866;50.160;14.768;2023-11-22T05:10:04;12.77;;;12.27;;
46875;SDS011;32866;50.160;14.768;2023-11-22T05:12:31;13.43;;;12.73;;
46875;SDS011;32866;50.160;14.768;2023-11-22T05:14:58;14.57;;;13.77;;
46875;SDS011;32866;50.160;14.768;2023-11-22T05:17:24;12.75;;;12.23;;
46875;SDS011;32866;50.160;14.768;2023-11-22T05:19:50;12.15;;;11.65;;
46875;SDS011;32866;50.160;14.768;2023-11-22T05:22:17;11.50;;;10.90;;
46875;SDS011;32866;50.160;14.768;2023-11-22T05:24:43;13.07;;;12.50;;
46875;SDS011;32866;50.160;14.768;2023-11-22T05:27:09;9.90;;;9.50;;
46875;SDS011;32866;50.160;14.768;2023-11-22T05:32:02;9.00;;;8.50;;
46875;SDS011;32866;50.160;14.768;2023-11-22T05:34:29;11.13;;;10.63;;
46875;SDS011;32866;50.160;14.768;2023-11-22T05:36:55;10.37;;;9.87;;
46875;SDS011;32866;50.160;14.768;2023-11-22T05:39:21;9.75;;;9.35;;
46875;SDS011;32866;50.160;14.768;2023-11-22T05:41:50;10.00;;;9.60;;
46875;SDS011;32866;50.160;14.768;2023-11-22T05:44:17;9.30;;;8.80;;
46875;SDS011;32866;50.160;14.768;2023-11-22T05:46:43;8.43;;;8.10;;
46875;SDS011;32866;50.160;14.768;2023-11-22T05:49:09;8.55;;;8.15;;
46875;SDS011;32866;50.160;14.768;2023-11-22T05:51:36;9.17;;;8.63;;
46875;SDS011;32866;50.160;14.768;2023-11-22T05:54:06;9.40;;;8.90;;
46875;SDS011;32866;50.160;14.768;2023-11-22T05:56:32;8.97;;;8.60;;
46875;SDS011;32866;50.160;14.768;2023-11-22T05:58:58;9.13;;;8.63;;
46875;SDS011;32866;50.160;14.768;2023-11-22T06:01:25;7.77;;;7.47;;
46875;SDS011;32866;50.160;14.768;2023-11-22T06:03:52;10.93;;;10.43;;
46875;SDS011;32866;50.160;14.768;2023-11-22T06:06:18;9.50;;;9.00;;
46875;SDS011;32866;50.160;14.768;2023-11-22T06:08:47;9.27;;;8.87;;
46875;SDS011;32866;50.160;14.768;2023-11-22T06:11:13;8.00;;;7.57;;
46875;SDS011;32866;50.160;14.768;2023-11-22T06:13:41;8.17;;;7.43;;
46875;SDS011;32866;50.160;14.768;2023-11-22T06:16:12;9.90;;;9.50;;
46875;SDS011;32866;50.160;14.768;2023-11-22T06:21:06;7.78;;;7.40;;
46875;SDS011;32866;50.160;14.768;2023-11-22T06:23:33;8.77;;;8.37;;
46875;SDS011;32866;50.160;14.768;2023-11-22T06:25:59;9.75;;;9.35;;
46875;SDS011;32866;50.160;14.768;2023-11-22T06:28:25;10.15;;;9.75;;
46875;SDS011;32866;50.160;14.768;2023-11-22T06:30:52;8.70;;;8.30;;
46875;SDS011;32866;50.160;14.768;2023-11-22T06:33:18;7.65;;;7.13;;
46875;SDS011;32866;50.160;14.768;2023-11-22T06:35:44;4.80;;;4.55;;
46875;SDS011;32866;50.160;14.768;2023-11-22T06:40:36;4.20;;;4.00;;
46875;SDS011;32866;50.160;14.768;2023-11-22T06:43:02;7.40;;;6.80;;
46875;SDS011;32866;50.160;14.768;2023-11-22T06:45:30;6.20;;;5.77;;
46875;SDS011;32866;50.160;14.768;2023-11-22T06:47:59;4.90;;;4.70;;
46875;SDS011;32866;50.160;14.768;2023-11-22T06:50:25;6.80;;;5.07;;
46875;SDS011;32866;50.160;14.768;2023-11-22T06:52:51;4.90;;;4.60;;
46875;SDS011;32866;50.160;14.768;2023-11-22T06:55:18;5.50;;;5.20;;
46875;SDS011;32866;50.160;14.768;2023-11-22T07:00:10;5.97;;;5.53;;
46875;SDS011;32866;50.160;14.768;2023-11-22T07:02:38;4.60;;;4.40;;
46875;SDS011;32866;50.160;14.768;2023-11-22T07:05:04;4.97;;;4.67;;
46875;SDS011;32866;50.160;14.768;2023-11-22T07:07:34;5.70;;;5.40;;
46875;SDS011;32866;50.160;14.768;2023-11-22T07:10:01;6.20;;;5.90;;
46875;SDS011;32866;50.160;14.768;2023-11-22T07:12:28;6.23;;;5.93;;
46875;SDS011;32866;50.160;14.768;2023-11-22T07:14:54;5.37;;;5.07;;
46875;SDS011;32866;50.160;14.768;2023-11-22T07:17:21;6.37;;;5.97;;
46875;SDS011;32866;50.160;14.768;2023-11-22T07:19:48;5.30;;;5.00;;
46875;SDS011;32866;50.160;14.768;2023-11-22T07:22:14;3.35;;;3.25;;
46875;SDS011;32866;50.160;14.768;2023-11-22T07:24:45;4.10;;;3.90;;
46875;SDS011;32866;50.160;14.768;2023-11-22T07:27:13;5.40;;;5.10;;
46875;SDS011;32866;50.160;14.768;2023-11-22T07:29:40;5.10;;;4.80;;
46875;SDS011;32866;50.160;14.768;2023-11-22T07:32:07;3.37;;;3.17;;
46875;SDS011;32866;50.160;14.768;2023-11-22T07:34:37;3.67;;;3.37;;
46875;SDS011;32866;50.160;14.768;2023-11-22T07:37:05;4.77;;;4.47;;
46875;SDS011;32866;50.160;14.768;2023-11-22T07:39:34;4.03;;;3.83;;
46875;SDS011;32866;50.160;14.768;2023-11-22T07:42:02;5.90;;;5.47;;
46875;SDS011;32866;50.160;14.768;2023-11-22T07:44:28;5.13;;;4.83;;
46875;SDS011;32866;50.160;14.768;2023-11-22T07:46:58;4.97;;;4.67;;
46875;SDS011;32866;50.160;14.768;2023-11-22T07:49:25;6.77;;;5.17;;
46875;SDS011;32866;50.160;14.768;2023-11-22T07:51:52;4.93;;;4.53;;
46875;SDS011;32866;50.160;14.768;2023-11-22T07:54:21;4.15;;;3.95;;
46875;SDS011;32866;50.160;14.768;2023-11-22T07:56:51;3.43;;;3.23;;
46875;SDS011;32866;50.160;14.768;2023-11-22T07:59:20;3.70;;;3.20;;
46875;SDS011;32866;50.160;14.768;2023-11-22T08:01:46;2.53;;;2.42;;
46875;SDS011;32866;50.160;14.768;2023-11-22T08:04:15;3.67;;;3.37;;
46875;SDS011;32866;50.160;14.768;2023-11-22T08:06:44;3.73;;;3.57;;
46875;SDS011;32866;50.160;14.768;2023-11-22T08:09:11;6.80;;;4.20;;
46875;SDS011;32866;50.160;14.768;2023-11-22T08:11:37;3.47;;;3.35;;
46875;SDS011;32866;50.160;14.768;2023-11-22T08:14:03;3.40;;;3.28;;
46875;SDS011;32866;50.160;14.768;2023-11-22T08:16:29;5.60;;;3.65;;
46875;SDS011;32866;50.160;14.768;2023-11-22T08:18:55;3.10;;;3.00;;
46875;SDS011;32866;50.160;14.768;2023-11-22T08:21:22;3.97;;;3.77;;
46875;SDS011;32866;50.160;14.768;2023-11-22T08:23:48;3.17;;;3.07;;
46875;SDS011;32866;50.160;14.768;2023-11-22T08:26:15;3.37;;;3.20;;
46875;SDS011;32866;50.160;14.768;2023-11-22T08:28:41;4.70;;;4.17;;
46875;SDS011;32866;50.160;14.768;2023-11-22T08:31:08;2.63;;;2.53;;
46875;SDS011;32866;50.160;14.768;2023-11-22T08:33:38;12.90;;;4.10;;
46875;SDS011;32866;50.160;14.768;2023-11-22T08:36:05;2.63;;;2.53;;
46875;SDS011;32866;50.160;14.768;2023-11-22T08:38:32;3.00;;;2.90;;
46875;SDS011;32866;50.160;14.768;2023-11-22T08:41:02;4.33;;;3.93;;
46875;SDS011;32866;50.160;14.768;2023-11-22T08:43:29;3.63;;;3.33;;
46875;SDS011;32866;50.160;14.768;2023-11-22T08:45:55;3.60;;;3.40;;
46875;SDS011;32866;50.160;14.768;2023-11-22T08:48:21;7.97;;;2.88;;
46875;SDS011;32866;50.160;14.768;2023-11-22T08:50:47;6.50;;;4.63;;
46875;SDS011;32866;50.160;14.768;2023-11-22T08:53:14;5.27;;;4.07;;
46875;SDS011;32866;50.160;14.768;2023-11-22T08:55:41;3.80;;;3.50;;
46875;SDS011;32866;50.160;14.768;2023-11-22T08:58:11;4.07;;;3.87;;
46875;SDS011;32866;50.160;14.768;2023-11-22T09:00:38;3.63;;;3.43;;
46875;SDS011;32866;50.160;14.768;2023-11-22T09:03:03;3.88;;;3.47;;
46875;SDS011;32866;50.160;14.768;2023-11-22T09:05:29;3.40;;;3.10;;
46875;SDS011;32866;50.160;14.768;2023-11-22T09:07:55;4.63;;;4.28;;
46875;SDS011;32866;50.160;14.768;2023-11-22T09:10:21;3.38;;;3.22;;
46875;SDS011;32866;50.160;14.768;2023-11-22T09:12:47;3.65;;;3.45;;
46875;SDS011;32866;50.160;14.768;2023-11-22T09:15:14;3.25;;;3.08;;
46875;SDS011;32866;50.160;14.768;2023-11-22T09:17:43;3.83;;;3.53;;
46875;SDS011;32866;50.160;14.768;2023-11-22T09:20:12;4.40;;;4.20;;
46875;SDS011;32866;50.160;14.768;2023-11-22T09:22:42;3.17;;;3.03;;
46875;SDS011;32866;50.160;14.768;2023-11-22T09:25:16;5.50;;;5.00;;
46875;SDS011;32866;50.160;14.768;2023-11-22T09:27:45;5.73;;;4.27;;
46875;SDS011;32866;50.160;14.768;2023-11-22T09:30:15;3.00;;;2.80;;
46875;SDS011;32866;50.160;14.768;2023-11-22T09:32:58;7.03;;;6.33;;
46875;SDS011;32866;50.160;14.768;2023-11-22T09:35:25;3.57;;;3.37;;
46875;SDS011;32866;50.160;14.768;2023-11-22T09:37:51;2.97;;;2.85;;
46875;SDS011;32866;50.160;14.768;2023-11-22T09:40:17;7.85;;;6.50;;
46875;SDS011;32866;50.160;14.768;2023-11-22T09:42:44;4.93;;;4.63;;
46875;SDS011;32866;50.160;14.768;2023-11-22T09:45:16;5.87;;;5.27;;
46875;SDS011;32866;50.160;14.768;2023-11-22T09:47:46;2.43;;;2.33;;
46875;SDS011;32866;50.160;14.768;2023-11-22T09:50:47;10.77;;;8.00;;
46875;SDS011;32866;50.160;14.768;2023-11-22T09:53:10;5.90;;;4.07;;
46875;SDS011;32866;50.160;14.768;2023-11-22T09:55:40;3.37;;;3.17;;
46875;SDS011;32866;50.160;14.768;2023-11-22T09:58:11;4.50;;;4.20;;
46875;SDS011;32866;50.160;14.768;2023-11-22T10:00:40;4.07;;;3.80;;
46875;SDS011;32866;50.160;14.768;2023-11-22T10:03:07;7.40;;;3.63;;
46875;SDS011;32866;50.160;14.768;2023-11-22T10:08:00;3.53;;;3.33;;
46875;SDS011;32866;50.160;14.768;2023-11-22T10:10:26;8.43;;;3.73;;
46875;SDS011;32866;50.160;14.768;2023-11-22T10:12:58;2.57;;;2.37;;
46875;SDS011;32866;50.160;14.768;2023-11-22T10:15:24;6.05;;;4.80;;
46875;SDS011;32866;50.160;14.768;2023-11-22T10:17:54;5.53;;;5.00;;
46875;SDS011;32866;50.160;14.768;2023-11-22T10:20:39;4.00;;;3.70;;
46875;SDS011;32866;50.160;14.768;2023-11-22T10:23:09;9.23;;;6.27;;
46875;SDS011;32866;50.160;14.768;2023-11-22T10:25:37;3.20;;;3.10;;
46875;SDS011;32866;50.160;14.768;2023-11-22T10:28:09;3.27;;;2.77;;
46875;SDS011;32866;50.160;14.768;2023-11-22T10:30:35;3.75;;;3.50;;
46875;SDS011;32866;50.160;14.768;2023-11-22T10:33:04;3.05;;;2.78;;
46875;SDS011;32866;50.160;14.768;2023-11-22T10:35:30;3.37;;;3.17;;
46875;SDS011;32866;50.160;14.768;2023-11-22T10:37:56;3.17;;;2.87;;
46875;SDS011;32866;50.160;14.768;2023-11-22T10:40:28;4.30;;;4.00;;
46875;SDS011;32866;50.160;14.768;2023-11-22T10:42:54;5.30;;;4.90;;
46875;SDS011;32866;50.160;14.768;2023-11-22T10:45:22;4.50;;;4.13;;
46875;SDS011;32866;50.160;14.768;2023-11-22T10:47:50;3.03;;;2.73;;
46875;SDS011;32866;50.160;14.768;2023-11-22T10:50:17;4.27;;;3.93;;
46875;SDS011;32866;50.160;14.768;2023-11-22T10:52:44;2.67;;;2.57;;
46875;SDS011;32866;50.160;14.768;2023-11-22T10:55:12;2.20;;;2.10;;
46875;SDS011;32866;50.160;14.768;2023-11-22T10:57:44;4.07;;;3.70;;
46875;SDS011;32866;50.160;14.768;2023-11-22T11:00:13;3.17;;;2.97;;
46875;SDS011;32866;50.160;14.768;2023-11-22T11:02:41;5.40;;;4.90;;
46875;SDS011;32866;50.160;14.768;2023-11-22T11:05:15;2.63;;;2.53;;
46875;SDS011;32866;50.160;14.768;2023-11-22T11:07:49;7.10;;;4.80;;
46875;SDS011;32866;50.160;14.768;2023-11-22T11:10:19;4.83;;;3.70;;
46875;SDS011;32866;50.160;14.768;2023-11-22T11:12:47;8.03;;;4.23;;
46875;SDS011;32866;50.160;14.768;2023-11-22T11:15:14;4.40;;;4.10;;
46875;SDS011;32866;50.160;14.768;2023-11-22T11:17:43;7.93;;;4.93;;
46875;SDS011;32866;50.160;14.768;2023-11-22T11:20:12;3.73;;;3.40;;
46875;SDS011;32866;50.160;14.768;2023-11-22T11:22:39;3.70;;;3.50;;
46875;SDS011;32866;50.160;14.768;2023-11-22T11:27:34;2.37;;;2.27;;
46875;SDS011;32866;50.160;14.768;2023-11-22T11:32:58;2.50;;;2.40;;
46875;SDS011;32866;50.160;14.768;2023-11-22T11:35:41;4.53;;;4.30;;
46875;SDS011;32866;50.160;14.768;2023-11-22T11:40:40;2.80;;;2.70;;
46875;SDS011;32866;50.160;14.768;2023-11-22T11:43:07;4.10;;;3.57;;
46875;SDS011;32866;50.160;14.768;2023-11-22T11:45:37;5.10;;;2.97;;
46875;SDS011;32866;50.160;14.768;2023-11-22T11:48:14;6.97;;;3.90;;
46875;SDS011;32866;50.160;14.768;2023-11-22T11:50:41;3.07;;;2.97;;
46875;SDS011;32866;50.160;14.768;2023-11-22T11:53:08;4.57;;;4.23;;
46875;SDS011;32866;50.160;14.768;2023-11-22T11:55:36;3.97;;;3.57;;
46875;SDS011;32866;50.160;14.768;2023-11-22T11:58:06;6.80;;;3.90;;
46875;SDS011;32866;50.160;14.768;2023-11-22T12:00:36;3.33;;;3.13;;
46875;SDS011;32866;50.160;14.768;2023-11-22T12:03:06;2.97;;;2.87;;
46875;SDS011;32866;50.160;14.768;2023-11-22T12:05:38;4.53;;;3.83;;
46875;SDS011;32866;50.160;14.768;2023-11-22T12:08:04;7.30;;;6.63;;
46875;SDS011;32866;50.160;14.768;2023-11-22T12:10:31;4.77;;;4.37;;
46875;SDS011;32866;50.160;14.768;2023-11-22T12:12:57;3.93;;;3.70;;
46875;SDS011;32866;50.160;14.768;2023-11-22T12:15:24;3.13;;;3.00;;
46875;SDS011;32866;50.160;14.768;2023-11-22T12:17:51;4.37;;;4.10;;
46875;SDS011;32866;50.160;14.768;2023-11-22T12:20:17;16.00;;;7.77;;
46875;SDS011;32866;50.160;14.768;2023-11-22T12:22:47;3.17;;;2.93;;
46875;SDS011;32866;50.160;14.768;2023-11-22T12:25:14;4.57;;;4.17;;
46875;SDS011;32866;50.160;14.768;2023-11-22T12:27:43;3.33;;;3.13;;
46875;SDS011;32866;50.160;14.768;2023-11-22T12:33:00;7.37;;;5.23;;
46875;SDS011;32866;50.160;14.768;2023-11-22T12:35:30;4.33;;;4.03;;
46875;SDS011;32866;50.160;14.768;2023-11-22T12:37:58;6.90;;;4.83;;
46875;SDS011;32866;50.160;14.768;2023-11-22T12:40:26;3.77;;;3.47;;
46875;SDS011;32866;50.160;14.768;2023-11-22T12:42:59;6.73;;;4.70;;
46875;SDS011;32866;50.160;14.768;2023-11-22T12:45:27;3.70;;;3.43;;
46875;SDS011;32866;50.160;14.768;2023-11-22T12:47:55;2.83;;;2.70;;
46875;SDS011;32866;50.160;14.768;2023-11-22T12:50:31;2.40;;;2.30;;
46875;SDS011;32866;50.160;14.768;2023-11-22T12:53:13;4.43;;;4.13;;
46875;SDS011;32866;50.160;14.768;2023-11-22T12:55:44;3.57;;;3.43;;
46875;SDS011;32866;50.160;14.768;2023-11-22T12:58:12;3.27;;;3.13;;
46875;SDS011;32866;50.160;14.768;2023-11-22T13:00:43;4.63;;;4.33;;
46875;SDS011;32866;50.160;14.768;2023-11-22T13:03:11;6.27;;;2.70;;
46875;SDS011;32866;50.160;14.768;2023-11-22T13:05:44;3.47;;;3.27;;
46875;SDS011;32866;50.160;14.768;2023-11-22T13:08:11;3.73;;;3.53;;
46875;SDS011;32866;50.160;14.768;2023-11-22T13:10:39;4.17;;;3.80;;
46875;SDS011;32866;50.160;14.768;2023-11-22T13:13:06;4.40;;;4.10;;
46875;SDS011;32866;50.160;14.768;2023-11-22T13:15:34;6.70;;;3.97;;
46875;SDS011;32866;50.160;14.768;2023-11-22T13:18:00;4.20;;;4.00;;
46875;SDS011;32866;50.160;14.768;2023-11-22T13:22:53;3.10;;;2.87;;
46875;SDS011;32866;50.160;14.768;2023-11-22T13:25:20;9.53;;;3.13;;
46875;SDS011;32866;50.160;14.768;2023-11-22T13:27:49;4.40;;;4.07;;
46875;SDS011;32866;50.160;14.768;2023-11-22T13:30:17;2.87;;;2.77;;
46875;SDS011;32866;50.160;14.768;2023-11-22T13:32:46;3.63;;;3.13;;
46875;SDS011;32866;50.160;14.768;2023-11-22T13:35:12;5.93;;;5.43;;
46875;SDS011;32866;50.160;14.768;2023-11-22T13:37:43;3.23;;;3.03;;
46875;SDS011;32866;50.160;14.768;2023-11-22T13:40:10;2.93;;;2.83;;
46875;SDS011;32866;50.160;14.768;2023-11-22T13:42:49;3.90;;;3.60;;
46875;SDS011;32866;50.160;14.768;2023-11-22T13:45:18;3.30;;;3.20;;
46875;SDS011;32866;50.160;14.768;2023-11-22T13:47:46;7.53;;;3.57;;
46875;SDS011;32866;50.160;14.768;2023-11-22T13:50:16;4.50;;;4.20;;
46875;SDS011;32866;50.160;14.768;2023-11-22T13:52:48;4.13;;;3.83;;
46875;SDS011;32866;50.160;14.768;2023-11-22T13:55:14;3.83;;;3.63;;
46875;SDS011;32866;50.160;14.768;2023-11-22T13:57:43;4.30;;;4.03;;
46875;SDS011;32866;50.160;14.768;2023-11-22T14:02:39;4.80;;;3.93;;
46875;SDS011;32866;50.160;14.768;2023-11-22T14:05:07;4.30;;;4.03;;
46875;SDS011;32866;50.160;14.768;2023-11-22T14:07:34;4.30;;;3.60;;
46875;SDS011;32866;50.160;14.768;2023-11-22T14:10:01;3.20;;;3.10;;
46875;SDS011;32866;50.160;14.768;2023-11-22T14:12:29;11.53;;;3.70;;
46875;SDS011;32866;50.160;14.768;2023-11-22T14:14:56;2.60;;;2.50;;
46875;SDS011;32866;50.160;14.768;2023-11-22T14:17:23;3.93;;;3.63;;
46875;SDS011;32866;50.160;14.768;2023-11-22T14:22:15;3.67;;;3.37;;
46875;SDS011;32866;50.160;14.768;2023-11-22T14:24:43;2.87;;;2.67;;
46875;SDS011;32866;50.160;14.768;2023-11-22T14:27:12;3.70;;;3.40;;
46875;SDS011;32866;50.160;14.768;2023-11-22T14:29:38;5.00;;;4.13;;
46875;SDS011;32866;50.160;14.768;2023-11-22T14:32:06;3.13;;;2.93;;
46875;SDS011;32866;50.160;14.768;2023-11-22T14:34:32;2.57;;;2.43;;
46875;SDS011;32866;50.160;14.768;2023-11-22T14:36:59;2.70;;;2.60;;
46875;SDS011;32866;50.160;14.768;2023-11-22T14:39:25;4.32;;;3.83;;
46875;SDS011;32866;50.160;14.768;2023-11-22T14:41:52;4.80;;;4.43;;
46875;SDS011;32866;50.160;14.768;2023-11-22T14:44:19;4.47;;;4.10;;
46875;SDS011;32866;50.160;14.768;2023-11-22T14:46:46;4.40;;;4.00;;
46875;SDS011;32866;50.160;14.768;2023-11-22T14:49:12;4.90;;;4.27;;
46875;SDS011;32866;50.160;14.768;2023-11-22T14:51:39;3.40;;;3.20;;
46875;SDS011;32866;50.160;14.768;2023-11-22T14:54:05;3.13;;;2.92;;
46875;SDS011;32866;50.160;14.768;2023-11-22T14:56:32;4.17;;;3.97;;
46875;SDS011;32866;50.160;14.768;2023-11-22T14:59:00;4.80;;;4.47;;
46875;SDS011;32866;50.160;14.768;2023-11-22T15:01:27;3.87;;;3.67;;
46875;SDS011;32866;50.160;14.768;2023-11-22T15:03:53;4.07;;;3.78;;
46875;SDS011;32866;50.160;14.768;2023-11-22T15:06:19;4.03;;;3.80;;
46875;SDS011;32866;50.160;14.768;2023-11-22T15:08:46;6.40;;;5.33;;
46875;SDS011;32866;50.160;14.768;2023-11-22T15:11:13;4.03;;;3.60;;
46875;SDS011;32866;50.160;14.768;2023-11-22T15:13:41;3.87;;;3.60;;
46875;SDS011;32866;50.160;14.768;2023-11-22T15:16:07;6.23;;;3.23;;
46875;SDS011;32866;50.160;14.768;2023-11-22T15:18:33;4.05;;;3.85;;
46875;SDS011;32866;50.160;14.768;2023-11-22T15:20:59;3.80;;;3.58;;
46875;SDS011;32866;50.160;14.768;2023-11-22T15:23:25;4.97;;;4.72;;
46875;SDS011;32866;50.160;14.768;2023-11-22T15:25:51;8.60;;;5.47;;
46875;SDS011;32866;50.160;14.768;2023-11-22T15:28:19;3.90;;;3.53;;
46875;SDS011;32866;50.160;14.768;2023-11-22T15:30:48;6.10;;;5.60;;